Main page
METAR-TAF:

METAR-TAF

Airports :

Chapecó Airport

Chapecó, Santa Catarina, Brazil

latitude: 27-08-02S, longitude: 052-39-43W, elevation: 654 m

Current weather observation

The report was made 1 hour and 26 minutes ago, at 00:00 UTC
Wind 10 kt from the Southeast
Temperature 26°C
Humidity 39%
Pressure 1014 hPa
Visibility 10 km or more
no clouds below 1500 m and no cumulonimbus

METAR: SBCH 170000Z 13010KT CAVOK 26/11 Q1014

Time: 23:26 (01:26 UTC)


TAF: missing

Weather observations and forecasts of more than 4000 airports (METAR and TAF reports).

The available stations are represented by yellow and red dots on the map.

Hover mouse over dot to see the name of the station.

Then click to see weather observations and forecasts.

To change the map : click on the green buttons with a black cross to zoom in, on the green button with a dash to zoom out, or on the green arrows for adjacent maps.


METAR-TAF: